createdAt,value
2018-09-27T00:01:39.736Z,95844.11
2018-09-27T00:04:09.229Z,95846.92
2018-09-27T00:06:38.479Z,95845.90
2018-09-27T00:09:08.338Z,95843.77
2018-09-27T00:11:38.508Z,95845.77
2018-09-27T00:14:07.848Z,95844.48
2018-09-27T00:16:37.141Z,95848.00
2018-09-27T00:19:06.326Z,95841.22
2018-09-27T00:21:35.672Z,95841.31
2018-09-27T00:24:05.108Z,95837.78
2018-09-27T00:26:34.692Z,95834.00
2018-09-27T00:29:04.003Z,95836.23
2018-09-27T00:31:33.264Z,95830.86
2018-09-27T00:34:02.673Z,95829.47
2018-09-27T00:36:32.193Z,95829.79
2018-09-27T00:39:01.514Z,95833.02
2018-09-27T00:41:30.504Z,95830.16
2018-09-27T00:43:59.656Z,95833.43
2018-09-27T00:46:28.837Z,95833.09
2018-09-27T00:48:58.010Z,95830.99
2018-09-27T00:51:27.116Z,95827.75
2018-09-27T00:53:56.106Z,95828.16
2018-09-27T00:56:25.200Z,95825.17
2018-09-27T00:58:54.304Z,95822.38
2018-09-27T01:01:23.254Z,95815.74
2018-09-27T01:03:52.287Z,95811.41
2018-09-27T01:06:21.399Z,95810.60
2018-09-27T01:08:50.449Z,95812.03
2018-09-27T01:11:20.607Z,95809.09
2018-09-27T01:13:49.613Z,95808.96
2018-09-27T01:16:18.811Z,95742.11
2018-09-27T01:18:47.881Z,95810.88
2018-09-27T01:21:16.950Z,95804.11
2018-09-27T01:23:45.939Z,95816.09
2018-09-27T01:26:14.958Z,95812.50
2018-09-27T01:28:43.910Z,95815.21
2018-09-27T01:31:12.974Z,95809.98
2018-09-27T01:33:41.999Z,95815.66
2018-09-27T01:36:10.977Z,95810.72
2018-09-27T01:38:40.035Z,95808.48
2018-09-27T01:41:09.381Z,95811.94
2018-09-27T01:43:38.481Z,95808.80
2018-09-27T01:46:07.435Z,95802.91
2018-09-27T01:48:36.600Z,95797.29
2018-09-27T01:51:05.744Z,95810.59
2018-09-27T01:53:34.814Z,95805.07
2018-09-27T01:56:03.983Z,95804.39
2018-09-27T01:58:33.220Z,95801.48
2018-09-27T02:01:02.316Z,95798.38
2018-09-27T02:03:31.329Z,95794.78
2018-09-27T02:06:00.420Z,95797.66
2018-09-27T02:08:29.438Z,95796.88
2018-09-27T02:10:58.425Z,95798.30
2018-09-27T02:13:27.434Z,95798.38
2018-09-27T02:15:56.698Z,95791.00
2018-09-27T02:18:25.876Z,95791.88
2018-09-27T02:20:54.829Z,95790.52
2018-09-27T02:23:23.835Z,95782.60
2018-09-27T02:25:53.230Z,95784.36
2018-09-27T02:28:22.684Z,95783.75
2018-09-27T02:30:51.968Z,95776.38
2018-09-27T02:33:21.300Z,95779.56
2018-09-27T02:35:50.692Z,95773.88
2018-09-27T02:38:20.174Z,95777.33
2018-09-27T02:40:49.767Z,95769.71
2018-09-27T02:43:19.224Z,95771.20
2018-09-27T02:45:48.680Z,95770.19
2018-09-27T02:48:18.343Z,95769.24
2018-09-27T02:50:47.633Z,95769.52
2018-09-27T02:53:16.954Z,95770.53
2018-09-27T02:55:46.510Z,95767.69
2018-09-27T02:58:16.008Z,95765.99
2018-09-27T03:00:45.466Z,95773.94
2018-09-27T03:03:14.745Z,95768.05
2018-09-27T03:05:43.720Z,95763.92
2018-09-27T03:08:13.181Z,95762.99
2018-09-27T03:10:42.500Z,95766.83
2018-09-27T03:13:11.951Z,95770.77
2018-09-27T03:15:41.604Z,95765.00
2018-09-27T03:18:11.000Z,95762.13
2018-09-27T03:20:40.359Z,95763.73
2018-09-27T03:23:09.546Z,95770.16
2018-09-27T03:25:38.745Z,95773.34
2018-09-27T03:28:08.125Z,95769.16
2018-09-27T03:30:38.423Z,95772.80
2018-09-27T03:33:08.116Z,95775.84
2018-09-27T03:35:38.300Z,95773.27
2018-09-27T03:38:07.734Z,95774.50
2018-09-27T03:40:37.676Z,95767.39
2018-09-27T03:43:08.346Z,95771.44
2018-09-27T03:45:37.589Z,95774.50
2018-09-27T03:48:06.872Z,95772.10
2018-09-27T03:50:36.268Z,95761.70
2018-09-27T03:53:05.649Z,95763.75
2018-09-27T03:55:34.912Z,95756.31
2018-09-27T03:58:04.316Z,95758.11
2018-09-27T04:00:33.309Z,95759.75
2018-09-27T04:03:02.507Z,95757.25
2018-09-27T04:05:31.926Z,95761.71
2018-09-27T04:08:01.370Z,95761.38
2018-09-27T04:10:31.222Z,95761.11
2018-09-27T04:13:00.360Z,95758.06
2018-09-27T04:15:29.667Z,95758.19
2018-09-27T04:17:59.479Z,95755.75
2018-09-27T04:20:28.529Z,95755.54
2018-09-27T04:22:57.588Z,95758.39
2018-09-27T04:25:26.692Z,95761.09
2018-09-27T04:27:55.860Z,95759.05
2018-09-27T04:30:25.085Z,95757.90
2018-09-27T04:32:54.508Z,95754.59
2018-09-27T04:35:23.872Z,95751.82
2018-09-27T04:37:52.905Z,95751.06
2018-09-27T04:40:21.877Z,95749.17
2018-09-27T04:42:51.287Z,95746.19
2018-09-27T04:45:20.372Z,95744.64
2018-09-27T04:47:49.400Z,95741.39
2018-09-27T04:50:18.676Z,95743.44
2018-09-27T04:52:47.816Z,95747.00
2018-09-27T04:55:16.892Z,95743.20
2018-09-27T04:57:45.930Z,95744.56
2018-09-27T05:00:14.911Z,95745.58
2018-09-27T05:02:44.994Z,95754.56
2018-09-27T05:05:14.139Z,95756.32
2018-09-27T05:07:43.462Z,95746.79
2018-09-27T05:10:12.738Z,95754.57
2018-09-27T05:12:41.731Z,95752.47
2018-09-27T05:15:11.462Z,95748.91
2018-09-27T05:17:40.464Z,95752.95
2018-09-27T05:20:09.510Z,95749.52
2018-09-27T05:22:38.678Z,95745.06
2018-09-27T05:25:07.705Z,95751.35
2018-09-27T05:27:36.807Z,95742.44
2018-09-27T05:30:05.825Z,95741.91
2018-09-27T05:32:34.904Z,95738.05
2018-09-27T05:35:04.254Z,95739.02
2018-09-27T05:37:33.427Z,95734.48
2018-09-27T05:40:02.696Z,95729.55
2018-09-27T05:42:31.797Z,95728.06
2018-09-27T05:45:00.809Z,95731.09
2018-09-27T05:47:29.893Z,95732.67
2018-09-27T05:49:59.506Z,95728.30
2018-09-27T05:52:28.591Z,95729.98
2018-09-27T05:54:57.580Z,95742.52
2018-09-27T05:57:27.340Z,95743.84
2018-09-27T05:59:56.361Z,95749.80
2018-09-27T06:02:26.253Z,95755.36
2018-09-27T06:04:55.214Z,95758.37
2018-09-27T06:07:24.155Z,95750.57
2018-09-27T06:09:53.263Z,95756.86
2018-09-27T06:12:22.342Z,95757.44
2018-09-27T06:14:51.280Z,95760.26
2018-09-27T06:17:20.416Z,95766.13
2018-09-27T06:19:49.512Z,95758.34
2018-09-27T06:22:18.548Z,95766.00
2018-09-27T06:24:47.568Z,95763.67
2018-09-27T06:27:17.189Z,95770.92
2018-09-27T06:29:46.275Z,95768.62
2018-09-27T06:32:15.378Z,95773.67
2018-09-27T06:34:44.641Z,95769.09
2018-09-27T06:37:13.750Z,95766.20
2018-09-27T06:39:42.803Z,95765.69
2018-09-27T06:42:11.805Z,95759.39
2018-09-27T06:44:41.016Z,95757.14
2018-09-27T06:47:10.233Z,95760.29
2018-09-27T06:49:39.500Z,95762.41
2018-09-27T06:52:08.535Z,95763.72
2018-09-27T06:54:37.796Z,95764.20
2018-09-27T06:57:07.164Z,95758.35
2018-09-27T06:59:36.259Z,95763.50
2018-09-27T07:02:05.301Z,95760.91
2018-09-27T07:04:34.393Z,95767.42
2018-09-27T07:07:03.489Z,95769.38
2018-09-27T07:09:32.835Z,95766.80
2018-09-27T07:12:02.336Z,95769.71
2018-09-27T07:14:31.807Z,95766.14
2018-09-27T07:17:01.264Z,95765.52
2018-09-27T07:19:30.650Z,95776.13
2018-09-27T07:22:00.010Z,95768.51
2018-09-27T07:24:29.473Z,95772.41
2018-09-27T07:26:59.067Z,95771.74
2018-09-27T07:29:28.696Z,95765.35
2018-09-27T07:31:58.091Z,95758.06
2018-09-27T07:34:27.375Z,95759.04
2018-09-27T07:36:56.721Z,95760.84
2018-09-27T07:39:26.141Z,95747.84
2018-09-27T07:41:55.516Z,95745.59
2018-09-27T07:44:24.583Z,95744.00
2018-09-27T07:46:54.508Z,95744.41
2018-09-27T07:49:23.508Z,95750.78
2018-09-27T07:51:52.616Z,95733.72
2018-09-27T07:54:21.688Z,95728.13
2018-09-27T07:56:50.966Z,95731.91
2018-09-27T07:59:20.054Z,95724.39
2018-09-27T08:01:49.052Z,95727.65
2018-09-27T08:04:18.229Z,95721.09
2018-09-27T08:06:47.362Z,95726.81
2018-09-27T08:09:16.646Z,95725.77
2018-09-27T08:11:46.665Z,95723.92
2018-09-27T08:14:16.373Z,95721.23
2018-09-27T08:16:46.056Z,95718.03
2018-09-27T08:19:15.507Z,95719.00
2018-09-27T08:21:45.833Z,95712.41
2018-09-27T08:24:14.890Z,95713.30
2018-09-27T08:26:43.862Z,95705.50
2018-09-27T08:29:12.913Z,95698.15
2018-09-27T08:31:42.693Z,95695.85
2018-09-27T08:34:11.787Z,95694.47
2018-09-27T08:36:41.005Z,95691.97
2018-09-27T08:39:12.277Z,95684.70
2018-09-27T08:41:41.733Z,95681.03
2018-09-27T08:44:12.137Z,95675.75
2018-09-27T08:46:42.301Z,95678.45
2018-09-27T08:49:11.729Z,95671.94
2018-09-27T08:51:41.879Z,95671.63
2018-09-27T08:54:11.133Z,95671.27
2018-09-27T08:56:40.503Z,95663.87
2018-09-27T08:59:09.511Z,95652.30
2018-09-27T09:01:38.587Z,95655.23
2018-09-27T09:04:07.723Z,95651.59
2018-09-27T09:06:36.736Z,95640.00
2018-09-27T09:09:08.675Z,95639.36
2018-09-27T09:11:37.760Z,95627.66
2018-09-27T09:14:06.803Z,95628.01
2018-09-27T09:16:35.922Z,95622.12
2018-09-27T09:19:05.004Z,95619.18
2018-09-27T09:21:34.061Z,95617.05
2018-09-27T09:24:03.088Z,95616.86
2018-09-27T09:26:32.480Z,95612.48
2018-09-27T09:29:01.907Z,95606.97
2018-09-27T09:31:30.866Z,95604.66
2018-09-27T09:33:59.894Z,95601.52
2018-09-27T09:36:29.072Z,95599.88
2018-09-27T09:38:58.050Z,95596.48
2018-09-27T09:41:27.282Z,95590.88
2018-09-27T09:43:56.322Z,95582.55
2018-09-27T09:46:25.400Z,95587.61
2018-09-27T09:48:54.524Z,95581.35
2018-09-27T09:51:23.571Z,95578.59
2018-09-27T09:53:52.599Z,95577.62
2018-09-27T09:56:23.046Z,95579.09
2018-09-27T09:58:52.420Z,95566.38
2018-09-27T10:01:21.434Z,95564.19
2018-09-27T10:03:50.434Z,95565.00
2018-09-27T10:06:19.426Z,95561.70
2018-09-27T10:08:48.440Z,95554.76
2018-09-27T10:11:17.680Z,95554.16
2018-09-27T10:13:46.634Z,95550.67
2018-09-27T10:16:15.706Z,95542.72
2018-09-27T10:18:44.761Z,95535.00
2018-09-27T10:21:13.812Z,95534.75
2018-09-27T10:23:43.809Z,95530.95
2018-09-27T10:26:13.772Z,95526.48
2018-09-27T10:28:43.533Z,95516.99
2018-09-27T10:31:12.563Z,95512.52
2018-09-27T10:33:41.506Z,95511.63
2018-09-27T10:36:10.499Z,95504.22
2018-09-27T10:38:39.584Z,95499.39
2018-09-27T10:41:08.868Z,95500.86
2018-09-27T10:43:37.870Z,95494.87
2018-09-27T10:46:06.935Z,95489.08
2018-09-27T10:48:36.004Z,95485.45
2018-09-27T10:51:05.137Z,95477.09
2018-09-27T10:53:34.280Z,95473.37
2018-09-27T10:56:03.257Z,95471.93
2018-09-27T10:58:32.501Z,95469.81
2018-09-27T11:01:01.583Z,95457.66
2018-09-27T11:03:30.884Z,95449.70
2018-09-27T11:05:59.989Z,95446.44
2018-09-27T11:08:29.120Z,95438.83
2018-09-27T11:10:58.138Z,95428.61
2018-09-27T11:13:27.150Z,95429.08
2018-09-27T11:15:56.213Z,95424.06
2018-09-27T11:18:25.288Z,95418.69
2018-09-27T11:20:54.239Z,95407.55
2018-09-27T11:23:23.372Z,95406.50
2018-09-27T11:25:52.437Z,95401.50
2018-09-27T11:28:22.254Z,95404.80
2018-09-27T11:30:56.228Z,95391.06
2018-09-27T11:33:25.418Z,95385.73
2018-09-27T11:35:54.620Z,95378.02
2018-09-27T11:38:23.824Z,95370.70
2018-09-27T11:40:52.791Z,95368.03
2018-09-27T11:43:21.866Z,95366.73
2018-09-27T11:45:50.916Z,95359.83
2018-09-27T11:48:19.932Z,95349.86
2018-09-27T11:50:48.984Z,95347.30
2018-09-27T11:53:18.560Z,95349.69
2018-09-27T11:55:47.608Z,95342.84
2018-09-27T11:58:16.630Z,95337.63
2018-09-27T12:00:45.743Z,95328.89
2018-09-27T12:03:14.857Z,95331.86
2018-09-27T12:05:43.943Z,95323.64
2018-09-27T12:08:12.929Z,95323.01
2018-09-27T12:10:41.967Z,95322.69
2018-09-27T12:13:11.073Z,95308.25
2018-09-27T12:15:41.092Z,95307.17
2018-09-27T12:18:10.196Z,95301.89
2018-09-27T12:20:39.998Z,95301.96
2018-09-27T12:23:09.249Z,95293.75
2018-09-27T12:25:38.419Z,95288.25
2018-09-27T12:28:07.586Z,95286.78
2018-09-27T12:30:36.785Z,95281.78
2018-09-27T12:33:05.793Z,95285.45
2018-09-27T12:35:34.800Z,95277.66
2018-09-27T12:38:03.990Z,95277.25
2018-09-27T12:40:33.109Z,95271.72
2018-09-27T12:43:02.338Z,95268.05
2018-09-27T12:45:31.927Z,95260.64
2018-09-27T12:48:01.572Z,95259.03
2018-09-27T12:50:30.795Z,95259.05
2018-09-27T12:52:59.897Z,95251.38
2018-09-27T12:55:29.058Z,95250.81
2018-09-27T12:57:58.101Z,95242.30
2018-09-27T13:00:27.321Z,95242.30
2018-09-27T13:02:57.653Z,95233.85
2018-09-27T13:05:26.785Z,95233.02
2018-09-27T13:07:55.920Z,95226.38
2018-09-27T13:10:25.496Z,95222.70
2018-09-27T13:12:54.759Z,95216.08
2018-09-27T13:15:23.877Z,95209.73
2018-09-27T13:17:52.980Z,95203.06
2018-09-27T13:20:22.767Z,95200.84
2018-09-27T13:22:53.392Z,95197.72
2018-09-27T13:25:22.457Z,95188.39
2018-09-27T13:27:52.038Z,95183.21
2018-09-27T13:30:21.514Z,95185.19
2018-09-27T13:32:50.607Z,95179.61
2018-09-27T13:35:20.808Z,95179.95
2018-09-27T13:37:49.863Z,95173.59
2018-09-27T13:40:19.011Z,95166.45
2018-09-27T13:42:48.115Z,95159.94
2018-09-27T13:45:17.200Z,95162.66
2018-09-27T13:47:46.290Z,95157.88
2018-09-27T13:50:15.467Z,95150.80
2018-09-27T13:52:44.527Z,95148.99
2018-09-27T13:55:13.739Z,95147.94
2018-09-27T13:57:43.821Z,95141.84
2018-09-27T14:00:12.844Z,95137.85
2018-09-27T14:02:42.138Z,95140.84
2018-09-27T14:05:11.190Z,95135.33
2018-09-27T14:07:40.689Z,95133.50
2018-09-27T14:10:09.974Z,95127.95
2018-09-27T14:12:39.466Z,95124.23
2018-09-27T14:15:08.976Z,95120.53
2018-09-27T14:17:38.060Z,95111.03
2018-09-27T14:20:08.852Z,95104.12
2018-09-27T14:22:38.282Z,95112.59
2018-09-27T14:25:07.546Z,95105.45
2018-09-27T14:27:36.897Z,95106.02
2018-09-27T14:30:06.069Z,95099.38
2018-09-27T14:32:35.452Z,95095.16
2018-09-27T14:35:05.632Z,95090.61
2018-09-27T14:37:34.829Z,95085.80
2018-09-27T14:40:04.516Z,95092.69
2018-09-27T14:42:33.839Z,95092.89
2018-09-27T14:45:02.990Z,95094.41
2018-09-27T14:47:32.749Z,95085.45
2018-09-27T14:50:02.139Z,95083.83
2018-09-27T14:52:31.806Z,95080.22
2018-09-27T14:55:01.043Z,95076.16
2018-09-27T14:57:30.541Z,95076.55
2018-09-27T15:00:00.445Z,95073.78
2018-09-27T15:02:30.164Z,95079.10
2018-09-27T15:04:59.355Z,95074.78
2018-09-27T15:07:29.865Z,95073.14
2018-09-27T15:09:59.033Z,95070.34
2018-09-27T15:12:29.032Z,95067.97
2018-09-27T15:14:58.372Z,95069.28
2018-09-27T15:17:27.726Z,95069.16
2018-09-27T15:19:57.238Z,95070.78
2018-09-27T15:22:27.300Z,95068.13
2018-09-27T15:24:56.505Z,95071.67
2018-09-27T15:27:27.096Z,95076.69
2018-09-27T15:29:56.491Z,95066.09
2018-09-27T15:32:25.702Z,95069.70
2018-09-27T15:34:54.982Z,95069.56
2018-09-27T15:37:24.200Z,95061.45
2018-09-27T15:39:53.351Z,95065.38
2018-09-27T15:42:22.609Z,95060.83
2018-09-27T15:44:51.954Z,95060.55
2018-09-27T15:47:21.557Z,95058.11
2018-09-27T15:49:51.536Z,95056.88
2018-09-27T15:52:20.919Z,95052.56
2018-09-27T15:54:50.094Z,95054.11
2018-09-27T15:57:19.264Z,95054.86
2018-09-27T15:59:49.440Z,95056.38
2018-09-27T16:02:18.493Z,95058.08
2018-09-27T16:04:47.679Z,95055.81
2018-09-27T16:07:17.310Z,95056.25
2018-09-27T16:09:47.964Z,95061.58
2018-09-27T16:12:17.204Z,95054.24
2018-09-27T16:14:46.524Z,95060.19
2018-09-27T16:17:15.828Z,95058.47
2018-09-27T16:19:45.037Z,95054.66
2018-09-27T16:22:14.218Z,95056.64
2018-09-27T16:24:43.540Z,95057.40
2018-09-27T16:27:12.698Z,95053.62
2018-09-27T16:29:41.942Z,95052.31
2018-09-27T16:32:11.193Z,95047.39
2018-09-27T16:34:40.377Z,95043.34
2018-09-27T16:37:10.351Z,95046.28
2018-09-27T16:39:39.548Z,95047.95
2018-09-27T16:42:08.735Z,95046.84
2018-09-27T16:44:38.355Z,95051.33
2018-09-27T16:47:08.039Z,95055.61
2018-09-27T16:49:37.980Z,95053.05
2018-09-27T16:52:07.449Z,95048.84
2018-09-27T16:54:36.667Z,95044.50
2018-09-27T16:57:06.706Z,95043.44
2018-09-27T16:59:36.175Z,95045.64
2018-09-27T17:02:05.458Z,95038.86
2018-09-27T17:04:34.586Z,95046.43
2018-09-27T17:07:03.743Z,95036.78
2018-09-27T17:09:33.050Z,95042.14
2018-09-27T17:12:02.097Z,95043.97
2018-09-27T17:14:31.155Z,95048.35
2018-09-27T17:17:00.260Z,95048.61
2018-09-27T17:19:29.329Z,95044.36
2018-09-27T17:21:58.382Z,95043.42
2018-09-27T17:24:27.489Z,95044.69
2018-09-27T17:26:56.707Z,95048.84
2018-09-27T17:29:27.967Z,95044.41
2018-09-27T17:31:56.980Z,95047.02
2018-09-27T17:34:26.043Z,95048.18
2018-09-27T17:36:56.034Z,95045.87
2018-09-27T17:39:25.386Z,95043.04
2018-09-27T17:41:54.584Z,95043.84
2018-09-27T17:44:23.873Z,95039.05
2018-09-27T17:46:53.088Z,95047.02
2018-09-27T17:49:22.598Z,95053.98
2018-09-27T17:51:52.227Z,95052.47
2018-09-27T17:54:21.664Z,95050.27
2018-09-27T17:56:50.909Z,95055.19
2018-09-27T17:59:20.126Z,95051.06
2018-09-27T18:01:49.357Z,95057.43
2018-09-27T18:04:19.244Z,95062.30
2018-09-27T18:06:48.897Z,95062.63
2018-09-27T18:09:18.283Z,95060.61
2018-09-27T18:11:49.194Z,95069.16
2018-09-27T18:14:20.266Z,95071.39
2018-09-27T18:16:50.166Z,95066.59
2018-09-27T18:19:20.594Z,95074.11
2018-09-27T18:21:50.381Z,95068.25
2018-09-27T18:24:19.739Z,95073.56
2018-09-27T18:26:48.946Z,95076.13
2018-09-27T18:29:19.706Z,95066.86
2018-09-27T18:31:49.493Z,95064.95
2018-09-27T18:34:19.242Z,95070.64
2018-09-27T18:36:48.524Z,95071.02
2018-09-27T18:39:17.717Z,95073.92
2018-09-27T18:41:47.348Z,95078.53
2018-09-27T18:44:17.166Z,95075.33
2018-09-27T18:46:47.189Z,95073.52
2018-09-27T18:49:16.662Z,95066.02
2018-09-27T18:51:47.055Z,95077.30
2018-09-27T18:54:16.814Z,95066.34
2018-09-27T18:56:47.989Z,95068.56
2018-09-27T18:59:17.620Z,95061.06
2018-09-27T19:01:47.092Z,95057.27
2018-09-27T19:04:16.663Z,95056.89
2018-09-27T19:06:46.135Z,95058.30
2018-09-27T19:09:15.572Z,95057.61
2018-09-27T19:11:45.478Z,95060.00
2018-09-27T19:14:15.174Z,95059.61
2018-09-27T19:16:46.928Z,95062.89
2018-09-27T19:19:16.441Z,95057.11
2018-09-27T19:21:45.754Z,95058.27
2018-09-27T19:24:16.857Z,95055.37
2018-09-27T19:26:47.966Z,95058.41
2018-09-27T19:29:17.841Z,95063.00
2018-09-27T19:31:47.530Z,95050.61
2018-09-27T19:34:17.788Z,95058.28
2018-09-27T19:36:47.304Z,95049.48
2018-09-27T19:39:16.730Z,95053.27
2018-09-27T19:41:46.727Z,95054.57
2018-09-27T19:44:16.274Z,95055.95
2018-09-27T19:46:45.798Z,95058.11
2018-09-27T19:49:15.293Z,95053.33
2018-09-27T19:51:44.926Z,95054.32
2018-09-27T19:54:15.232Z,95049.04
2018-09-27T19:56:44.335Z,95054.37
2018-09-27T19:59:13.837Z,95052.61
2018-09-27T20:01:43.244Z,95051.55
2018-09-27T20:04:12.795Z,95046.75
2018-09-27T20:06:42.285Z,95055.07
2018-09-27T20:09:13.317Z,95051.21
2018-09-27T20:11:42.938Z,95045.75
2018-09-27T20:14:12.768Z,95048.84
2018-09-27T20:16:42.331Z,95044.83
2018-09-27T20:19:11.897Z,95044.36
2018-09-27T20:21:41.912Z,95044.89
2018-09-27T20:24:11.366Z,95048.17
2018-09-27T20:26:40.671Z,95043.23
2018-09-27T20:37:55.954Z,95039.38
2018-09-27T20:40:25.410Z,95034.86
2018-09-27T20:42:54.871Z,95035.05
2018-09-27T20:45:24.315Z,95032.77
2018-09-27T20:47:53.679Z,95035.48
2018-09-27T20:50:23.209Z,95033.19
2018-09-27T20:52:52.787Z,95036.60
2018-09-27T20:55:22.118Z,95038.31
2018-09-27T20:57:51.359Z,95029.48
2018-09-27T21:00:20.447Z,95035.05
2018-09-27T21:02:49.493Z,95034.06
2018-09-27T21:05:19.720Z,95031.48
2018-09-27T21:07:49.079Z,95029.91
2018-09-27T21:10:18.431Z,95027.14
2018-09-27T21:12:47.765Z,95028.25
2018-09-27T21:15:16.944Z,95023.67
2018-09-27T21:17:45.946Z,95020.22
2018-09-27T21:20:15.024Z,95016.86
2018-09-27T21:22:44.091Z,95009.20
2018-09-27T21:25:13.602Z,95014.02
2018-09-27T21:27:43.177Z,95019.64
2018-09-27T21:30:12.579Z,95016.34
2018-09-27T21:32:41.840Z,95015.76
2018-09-27T21:35:11.146Z,95006.34
2018-09-27T21:37:40.635Z,95005.48
2018-09-27T21:40:10.687Z,95007.27
2018-09-27T21:42:40.135Z,94999.00
2018-09-27T21:45:09.571Z,95001.16
2018-09-27T21:47:38.973Z,94994.80
2018-09-27T21:50:08.470Z,94994.16
2018-09-27T21:52:38.127Z,94999.14
2018-09-27T21:55:07.422Z,94995.25
2018-09-27T21:57:38.077Z,94988.66
2018-09-27T22:00:07.868Z,94989.85
2018-09-27T22:02:40.260Z,94989.71
2018-09-27T22:05:10.002Z,94992.99
2018-09-27T22:07:40.310Z,94988.91
2018-09-27T22:10:09.871Z,94989.09
2018-09-27T22:12:39.435Z,94985.20
2018-09-27T22:15:08.824Z,94986.92
2018-09-27T22:17:38.263Z,94984.49
2018-09-27T22:20:07.408Z,94983.20
2018-09-27T22:22:36.770Z,94985.42
2018-09-27T22:25:06.105Z,94982.03
2018-09-27T22:27:35.116Z,94976.50
2018-09-27T22:30:04.290Z,94975.69
2018-09-27T22:32:33.682Z,94977.22
2018-09-27T22:35:02.749Z,94977.30
2018-09-27T22:37:32.332Z,94968.78
2018-09-27T22:40:01.514Z,94968.97
2018-09-27T22:42:30.758Z,94960.89
2018-09-27T22:45:00.094Z,94965.39
2018-09-27T22:47:29.715Z,94963.17
2018-09-27T22:49:59.104Z,94960.50
2018-09-27T22:52:28.363Z,94968.57
2018-09-27T22:54:57.700Z,94968.00
2018-09-27T22:57:26.994Z,94966.97
2018-09-27T22:59:56.223Z,94968.62
2018-09-27T23:02:25.850Z,94961.48
2018-09-27T23:04:55.231Z,94965.41
2018-09-27T23:07:24.954Z,94968.22
2018-09-27T23:09:54.217Z,94961.88
2018-09-27T23:12:23.165Z,94964.95
2018-09-27T23:14:52.223Z,94958.09
2018-09-27T23:17:21.610Z,94951.34
2018-09-27T23:19:50.780Z,94950.55
2018-09-27T23:22:20.132Z,94955.94
2018-09-27T23:24:49.483Z,94949.88
2018-09-27T23:27:18.731Z,94950.86
2018-09-27T23:29:47.780Z,94950.37
2018-09-27T23:32:16.877Z,94947.29
2018-09-27T23:34:45.919Z,94948.45
2018-09-27T23:37:15.088Z,94945.19
2018-09-27T23:39:44.098Z,94945.31
2018-09-27T23:42:13.073Z,94946.11
2018-09-27T23:44:42.093Z,94944.63
2018-09-27T23:47:11.163Z,94943.13
2018-09-27T23:49:40.207Z,94946.06
2018-09-27T23:52:09.859Z,94943.03
2018-09-27T23:54:39.209Z,94945.31
2018-09-27T23:57:08.561Z,94937.73
2018-09-27T23:59:37.966Z,94938.11
